sensor_id;sensor_type;location;lat;lon;timestamp;pressure;altitude;pressure_sealevel;temperature;humidity
7441;BME280;29616;51.950;8.572;2023-04-28T00:01:44;99967.78;;;9.70;100.00
7441;BME280;29616;51.950;8.572;2023-04-28T00:04:13;99962.06;;;9.64;100.00
7441;BME280;29616;51.950;8.572;2023-04-28T00:06:45;99964.19;;;9.70;100.00
7441;BME280;29616;51.950;8.572;2023-04-28T00:09:15;99961.72;;;9.77;100.00
7441;BME280;29616;51.950;8.572;2023-04-28T00:11:45;99959.41;;;9.82;100.00
7441;BME280;29616;51.950;8.572;2023-04-28T00:14:14;99946.91;;;9.79;100.00
7441;BME280;29616;51.950;8.572;2023-04-28T00:16:43;99935.84;;;9.81;100.00
7441;BME280;29616;51.950;8.572;2023-04-28T00:19:12;99942.16;;;9.81;100.00
7441;BME280;29616;51.950;8.572;2023-04-28T00:21:42;99941.31;;;9.81;100.00
7441;BME280;29616;51.950;8.572;2023-04-28T00:24:13;99924.13;;;9.70;100.00
7441;BME280;29616;51.950;8.572;2023-04-28T00:26:43;99920.94;;;9.75;100.00
7441;BME280;29616;51.950;8.572;2023-04-28T00:29:12;99931.94;;;9.83;100.00
7441;BME280;29616;51.950;8.572;2023-04-28T00:31:42;99929.63;;;9.88;100.00
7441;BME280;29616;51.950;8.572;2023-04-28T00:34:12;99921.13;;;9.91;100.00
7441;BME280;29616;51.950;8.572;2023-04-28T00:36:41;99929.16;;;9.93;100.00
7441;BME280;29616;51.950;8.572;2023-04-28T00:39:10;99914.50;;;9.94;100.00
7441;BME280;29616;51.950;8.572;2023-04-28T00:41:40;99905.00;;;9.98;100.00
7441;BME280;29616;51.950;8.572;2023-04-28T00:44:11;99908.34;;;10.09;100.00
7441;BME280;29616;51.950;8.572;2023-04-28T00:46:39;99914.97;;;10.07;100.00
7441;BME280;29616;51.950;8.572;2023-04-28T00:49:08;99899.00;;;10.12;100.00
7441;BME280;29616;51.950;8.572;2023-04-28T00:51:37;99897.03;;;10.14;100.00
7441;BME280;29616;51.950;8.572;2023-04-28T00:54:07;99904.63;;;10.10;100.00
7441;BME280;29616;51.950;8.572;2023-04-28T00:56:37;99873.84;;;9.91;100.00
7441;BME280;29616;51.950;8.572;2023-04-28T00:59:08;99885.41;;;10.02;100.00
7441;BME280;29616;51.950;8.572;2023-04-28T01:01:37;99891.44;;;10.06;100.00
7441;BME280;29616;51.950;8.572;2023-04-28T01:04:07;99895.41;;;10.11;100.00
7441;BME280;29616;51.950;8.572;2023-04-28T01:06:41;99891.09;;;10.09;100.00
7441;BME280;29616;51.950;8.572;2023-04-28T01:09:09;99889.84;;;10.13;100.00
7441;BME280;29616;51.950;8.572;2023-04-28T01:11:38;99899.75;;;10.14;100.00
7441;BME280;29616;51.950;8.572;2023-04-28T01:14:16;99884.19;;;10.14;100.00
7441;BME280;29616;51.950;8.572;2023-04-28T01:16:47;99881.63;;;10.13;100.00
7441;BME280;29616;51.950;8.572;2023-04-28T01:19:19;99885.47;;;10.20;100.00
7441;BME280;29616;51.950;8.572;2023-04-28T01:21:51;99881.34;;;10.16;100.00
7441;BME280;29616;51.950;8.572;2023-04-28T01:24:21;99863.91;;;10.17;100.00
7441;BME280;29616;51.950;8.572;2023-04-28T01:26:51;99866.13;;;10.13;100.00
7441;BME280;29616;51.950;8.572;2023-04-28T01:29:22;99866.72;;;10.25;100.00
7441;BME280;29616;51.950;8.572;2023-04-28T01:31:53;99871.28;;;10.16;100.00
7441;BME280;29616;51.950;8.572;2023-04-28T01:34:21;99861.91;;;10.19;100.00
7441;BME280;29616;51.950;8.572;2023-04-28T01:36:49;99852.00;;;10.18;100.00
7441;BME280;29616;51.950;8.572;2023-04-28T01:39:17;99854.03;;;10.16;100.00
7441;BME280;29616;51.950;8.572;2023-04-28T01:41:50;99847.59;;;10.25;100.00
7441;BME280;29616;51.950;8.572;2023-04-28T01:44:19;99845.91;;;10.24;100.00
7441;BME280;29616;51.950;8.572;2023-04-28T01:46:49;99836.94;;;10.14;100.00
7441;BME280;29616;51.950;8.572;2023-04-28T01:49:20;99846.59;;;10.26;100.00
7441;BME280;29616;51.950;8.572;2023-04-28T01:51:50;99846.78;;;10.24;100.00
7441;BME280;29616;51.950;8.572;2023-04-28T01:54:18;99839.78;;;10.30;100.00
7441;BME280;29616;51.950;8.572;2023-04-28T01:56:50;99829.03;;;10.28;100.00
7441;BME280;29616;51.950;8.572;2023-04-28T01:59:20;99834.69;;;10.27;100.00
7441;BME280;29616;51.950;8.572;2023-04-28T02:01:50;99825.44;;;10.28;100.00
7441;BME280;29616;51.950;8.572;2023-04-28T02:04:19;99827.16;;;10.29;100.00
7441;BME280;29616;51.950;8.572;2023-04-28T02:06:50;99824.75;;;10.26;100.00
7441;BME280;29616;51.950;8.572;2023-04-28T02:09:20;99821.16;;;10.25;100.00
7441;BME280;29616;51.950;8.572;2023-04-28T02:11:51;99820.22;;;10.34;100.00
7441;BME280;29616;51.950;8.572;2023-04-28T02:14:20;99824.50;;;10.37;100.00
7441;BME280;29616;51.950;8.572;2023-04-28T02:16:50;99817.81;;;10.31;100.00
7441;BME280;29616;51.950;8.572;2023-04-28T02:19:20;99817.09;;;10.29;100.00
7441;BME280;29616;51.950;8.572;2023-04-28T02:21:48;99804.34;;;10.38;100.00
7441;BME280;29616;51.950;8.572;2023-04-28T02:24:17;99818.00;;;10.38;100.00
7441;BME280;29616;51.950;8.572;2023-04-28T02:26:46;99815.44;;;10.37;100.00
7441;BME280;29616;51.950;8.572;2023-04-28T02:29:16;99808.13;;;10.37;100.00
7441;BME280;29616;51.950;8.572;2023-04-28T02:31:47;99814.22;;;10.31;100.00
7441;BME280;29616;51.950;8.572;2023-04-28T02:34:18;99811.28;;;10.24;100.00
7441;BME280;29616;51.950;8.572;2023-04-28T02:36:48;99800.09;;;10.18;100.00
7441;BME280;29616;51.950;8.572;2023-04-28T02:39:16;99813.44;;;10.21;100.00
7441;BME280;29616;51.950;8.572;2023-04-28T02:41:48;99796.25;;;10.11;100.00
7441;BME280;29616;51.950;8.572;2023-04-28T02:44:19;99796.88;;;10.22;100.00
7441;BME280;29616;51.950;8.572;2023-04-28T02:46:48;99786.81;;;10.23;100.00
7441;BME280;29616;51.950;8.572;2023-04-28T02:49:17;99790.41;;;10.23;100.00
7441;BME280;29616;51.950;8.572;2023-04-28T02:51:46;99789.88;;;10.20;100.00
7441;BME280;29616;51.950;8.572;2023-04-28T02:54:14;99792.59;;;10.20;100.00
7441;BME280;29616;51.950;8.572;2023-04-28T02:56:45;99786.75;;;10.15;100.00
7441;BME280;29616;51.950;8.572;2023-04-28T02:59:14;99787.53;;;10.25;100.00
7441;BME280;29616;51.950;8.572;2023-04-28T03:01:46;99781.28;;;10.32;100.00
7441;BME280;29616;51.950;8.572;2023-04-28T03:04:15;99774.97;;;10.32;100.00
7441;BME280;29616;51.950;8.572;2023-04-28T03:06:46;99767.78;;;10.31;100.00
7441;BME280;29616;51.950;8.572;2023-04-28T03:09:15;99768.25;;;10.26;100.00
7441;BME280;29616;51.950;8.572;2023-04-28T03:11:45;99765.34;;;10.28;100.00
7441;BME280;29616;51.950;8.572;2023-04-28T03:14:13;99765.66;;;10.25;100.00
7441;BME280;29616;51.950;8.572;2023-04-28T03:16:46;99761.44;;;10.30;100.00
7441;BME280;29616;51.950;8.572;2023-04-28T03:19:14;99757.84;;;10.30;100.00
7441;BME280;29616;51.950;8.572;2023-04-28T03:21:45;99754.97;;;10.31;100.00
7441;BME280;29616;51.950;8.572;2023-04-28T03:24:14;99763.00;;;10.33;100.00
7441;BME280;29616;51.950;8.572;2023-04-28T03:26:44;99749.53;;;10.31;100.00
7441;BME280;29616;51.950;8.572;2023-04-28T03:29:14;99746.94;;;10.30;100.00
7441;BME280;29616;51.950;8.572;2023-04-28T03:31:46;99749.41;;;10.41;100.00
7441;BME280;29616;51.950;8.572;2023-04-28T03:34:14;99756.72;;;10.41;100.00
7441;BME280;29616;51.950;8.572;2023-04-28T03:36:43;99755.91;;;10.40;100.00
7441;BME280;29616;51.950;8.572;2023-04-28T03:39:21;99742.25;;;10.40;100.00
7441;BME280;29616;51.950;8.572;2023-04-28T03:41:50;99733.69;;;10.35;100.00
7441;BME280;29616;51.950;8.572;2023-04-28T03:44:43;99738.78;;;10.38;100.00
7441;BME280;29616;51.950;8.572;2023-04-28T03:47:13;99734.38;;;10.37;100.00
7441;BME280;29616;51.950;8.572;2023-04-28T03:49:41;99740.56;;;10.47;100.00
7441;BME280;29616;51.950;8.572;2023-04-28T03:52:10;99739.03;;;10.45;100.00
7441;BME280;29616;51.950;8.572;2023-04-28T03:54:40;99737.84;;;10.47;100.00
7441;BME280;29616;51.950;8.572;2023-04-28T03:57:10;99742.63;;;10.45;100.00
7441;BME280;29616;51.950;8.572;2023-04-28T03:59:39;99729.31;;;10.50;100.00
7441;BME280;29616;51.950;8.572;2023-04-28T04:02:09;99735.28;;;10.46;100.00
7441;BME280;29616;51.950;8.572;2023-04-28T04:04:40;99730.34;;;10.49;100.00
7441;BME280;29616;51.950;8.572;2023-04-28T04:07:11;99731.88;;;10.52;100.00
7441;BME280;29616;51.950;8.572;2023-04-28T04:09:41;99726.59;;;10.50;100.00
7441;BME280;29616;51.950;8.572;2023-04-28T04:12:10;99736.34;;;10.53;100.00
7441;BME280;29616;51.950;8.572;2023-04-28T04:14:40;99736.13;;;10.46;100.00
7441;BME280;29616;51.950;8.572;2023-04-28T04:17:11;99739.63;;;10.56;100.00
7441;BME280;29616;51.950;8.572;2023-04-28T04:19:41;99736.53;;;10.59;100.00
7441;BME280;29616;51.950;8.572;2023-04-28T04:22:12;99723.69;;;10.52;100.00
7441;BME280;29616;51.950;8.572;2023-04-28T04:24:40;99726.28;;;10.53;100.00
7441;BME280;29616;51.950;8.572;2023-04-28T04:27:11;99726.66;;;10.58;100.00
7441;BME280;29616;51.950;8.572;2023-04-28T04:29:40;99717.41;;;10.59;100.00
7441;BME280;29616;51.950;8.572;2023-04-28T04:32:13;99726.66;;;10.58;100.00
7441;BME280;29616;51.950;8.572;2023-04-28T04:34:43;99722.22;;;10.65;100.00
7441;BME280;29616;51.950;8.572;2023-04-28T04:37:14;99725.28;;;10.62;100.00
7441;BME280;29616;51.950;8.572;2023-04-28T04:39:53;99726.38;;;10.69;100.00
7441;BME280;29616;51.950;8.572;2023-04-28T04:42:24;99714.72;;;10.67;100.00
7441;BME280;29616;51.950;8.572;2023-04-28T04:45:16;99714.41;;;10.70;100.00
7441;BME280;29616;51.950;8.572;2023-04-28T04:47:46;99716.81;;;10.73;100.00
7441;BME280;29616;51.950;8.572;2023-04-28T04:50:16;99715.25;;;10.71;100.00
7441;BME280;29616;51.950;8.572;2023-04-28T04:52:47;99712.00;;;10.67;100.00
7441;BME280;29616;51.950;8.572;2023-04-28T04:55:16;99717.31;;;10.69;100.00
7441;BME280;29616;51.950;8.572;2023-04-28T04:57:46;99721.22;;;10.66;100.00
7441;BME280;29616;51.950;8.572;2023-04-28T05:00:31;99710.63;;;10.63;100.00
7441;BME280;29616;51.950;8.572;2023-04-28T05:03:00;99716.31;;;10.78;100.00
7441;BME280;29616;51.950;8.572;2023-04-28T05:05:33;99717.34;;;10.77;100.00
7441;BME280;29616;51.950;8.572;2023-04-28T05:08:10;99713.25;;;10.81;100.00
7441;BME280;29616;51.950;8.572;2023-04-28T05:10:40;99697.19;;;10.78;100.00
7441;BME280;29616;51.950;8.572;2023-04-28T05:13:09;99702.31;;;10.81;100.00
7441;BME280;29616;51.950;8.572;2023-04-28T05:15:38;99695.34;;;10.86;100.00
7441;BME280;29616;51.950;8.572;2023-04-28T05:18:26;99693.31;;;10.96;100.00
7441;BME280;29616;51.950;8.572;2023-04-28T05:20:58;99686.19;;;11.04;100.00
7441;BME280;29616;51.950;8.572;2023-04-28T05:23:27;99689.66;;;11.14;100.00
7441;BME280;29616;51.950;8.572;2023-04-28T05:25:57;99698.25;;;11.35;100.00
7441;BME280;29616;51.950;8.572;2023-04-28T05:28:25;99687.00;;;11.46;100.00
7441;BME280;29616;51.950;8.572;2023-04-28T05:30:57;99687.34;;;11.51;100.00
7441;BME280;29616;51.950;8.572;2023-04-28T05:33:26;99689.56;;;11.64;100.00
7441;BME280;29616;51.950;8.572;2023-04-28T05:35:58;99669.06;;;11.68;100.00
7441;BME280;29616;51.950;8.572;2023-04-28T05:38:27;99693.88;;;11.82;100.00
7441;BME280;29616;51.950;8.572;2023-04-28T05:40:57;99688.75;;;11.79;100.00
7441;BME280;29616;51.950;8.572;2023-04-28T05:43:27;99693.56;;;11.85;100.00
7441;BME280;29616;51.950;8.572;2023-04-28T05:45:57;99674.53;;;11.68;100.00
7441;BME280;29616;51.950;8.572;2023-04-28T05:48:25;99687.69;;;11.64;100.00
7441;BME280;29616;51.950;8.572;2023-04-28T05:50:57;99691.44;;;11.55;100.00
7441;BME280;29616;51.950;8.572;2023-04-28T05:53:27;99683.94;;;11.57;100.00
7441;BME280;29616;51.950;8.572;2023-04-28T05:55:56;99692.69;;;11.69;100.00
7441;BME280;29616;51.950;8.572;2023-04-28T05:58:25;99679.28;;;11.66;100.00
7441;BME280;29616;51.950;8.572;2023-04-28T06:00:53;99689.59;;;11.72;100.00
7441;BME280;29616;51.950;8.572;2023-04-28T06:03:21;99668.91;;;11.77;100.00
7441;BME280;29616;51.950;8.572;2023-04-28T06:05:52;99674.38;;;11.77;100.00
7441;BME280;29616;51.950;8.572;2023-04-28T06:08:24;99671.66;;;11.85;100.00
7441;BME280;29616;51.950;8.572;2023-04-28T06:10:53;99660.69;;;11.85;100.00
7441;BME280;29616;51.950;8.572;2023-04-28T06:13:23;99659.69;;;12.02;100.00
7441;BME280;29616;51.950;8.572;2023-04-28T06:15:52;99672.31;;;12.11;100.00
7441;BME280;29616;51.950;8.572;2023-04-28T06:18:22;99677.47;;;12.06;100.00
7441;BME280;29616;51.950;8.572;2023-04-28T06:20:51;99670.63;;;12.10;100.00
7441;BME280;29616;51.950;8.572;2023-04-28T06:23:19;99671.97;;;12.23;100.00
7441;BME280;29616;51.950;8.572;2023-04-28T06:25:50;99672.16;;;12.21;100.00
7441;BME280;29616;51.950;8.572;2023-04-28T06:28:20;99662.38;;;12.35;100.00
7441;BME280;29616;51.950;8.572;2023-04-28T06:30:52;99668.53;;;12.37;100.00
7441;BME280;29616;51.950;8.572;2023-04-28T06:33:20;99665.88;;;12.59;100.00
7441;BME280;29616;51.950;8.572;2023-04-28T06:35:51;99664.59;;;12.78;100.00
7441;BME280;29616;51.950;8.572;2023-04-28T06:38:20;99652.28;;;12.82;100.00
7441;BME280;29616;51.950;8.572;2023-04-28T06:40:51;99648.78;;;12.88;100.00
7441;BME280;29616;51.950;8.572;2023-04-28T06:43:19;99660.44;;;12.98;100.00
7441;BME280;29616;51.950;8.572;2023-04-28T06:46:06;99632.81;;;13.00;100.00
7441;BME280;29616;51.950;8.572;2023-04-28T06:48:35;99637.72;;;13.12;100.00
7441;BME280;29616;51.950;8.572;2023-04-28T06:51:05;99641.75;;;13.32;100.00
7441;BME280;29616;51.950;8.572;2023-04-28T06:53:34;99641.38;;;13.35;100.00
7441;BME280;29616;51.950;8.572;2023-04-28T06:56:08;99637.22;;;13.40;100.00
7441;BME280;29616;51.950;8.572;2023-04-28T06:58:39;99637.22;;;13.17;100.00
7441;BME280;29616;51.950;8.572;2023-04-28T07:01:08;99633.56;;;13.24;100.00
7441;BME280;29616;51.950;8.572;2023-04-28T07:03:36;99632.56;;;13.17;100.00
7441;BME280;29616;51.950;8.572;2023-04-28T07:06:06;99630.25;;;13.29;100.00
7441;BME280;29616;51.950;8.572;2023-04-28T07:08:35;99625.28;;;13.32;100.00
7441;BME280;29616;51.950;8.572;2023-04-28T07:11:04;99627.47;;;13.37;100.00
7441;BME280;29616;51.950;8.572;2023-04-28T07:13:35;99615.50;;;13.30;100.00
7441;BME280;29616;51.950;8.572;2023-04-28T07:16:05;99625.22;;;13.41;100.00
7441;BME280;29616;51.950;8.572;2023-04-28T07:18:35;99633.81;;;13.38;100.00
7441;BME280;29616;51.950;8.572;2023-04-28T07:21:06;99629.22;;;13.53;100.00
7441;BME280;29616;51.950;8.572;2023-04-28T07:23:35;99622.88;;;13.52;100.00
7441;BME280;29616;51.950;8.572;2023-04-28T07:26:08;99627.44;;;13.82;100.00
7441;BME280;29616;51.950;8.572;2023-04-28T07:28:41;99618.78;;;13.93;100.00
7441;BME280;29616;51.950;8.572;2023-04-28T07:31:10;99622.75;;;13.91;100.00
7441;BME280;29616;51.950;8.572;2023-04-28T07:33:38;99620.91;;;14.21;100.00
7441;BME280;29616;51.950;8.572;2023-04-28T07:36:09;99619.13;;;13.90;100.00
7441;BME280;29616;51.950;8.572;2023-04-28T07:38:38;99613.66;;;13.90;100.00
7441;BME280;29616;51.950;8.572;2023-04-28T07:41:07;99621.00;;;13.75;100.00
7441;BME280;29616;51.950;8.572;2023-04-28T07:43:37;99614.75;;;13.81;100.00
7441;BME280;29616;51.950;8.572;2023-04-28T07:46:07;99610.75;;;13.69;100.00
7441;BME280;29616;51.950;8.572;2023-04-28T07:48:37;99617.72;;;13.94;100.00
7441;BME280;29616;51.950;8.572;2023-04-28T07:51:08;99617.53;;;13.96;100.00
7441;BME280;29616;51.950;8.572;2023-04-28T07:53:38;99604.47;;;13.98;100.00
7441;BME280;29616;51.950;8.572;2023-04-28T07:56:06;99607.50;;;14.03;100.00
7441;BME280;29616;51.950;8.572;2023-04-28T07:58:35;99601.75;;;14.13;100.00
7441;BME280;29616;51.950;8.572;2023-04-28T08:01:07;99597.00;;;14.21;100.00
7441;BME280;29616;51.950;8.572;2023-04-28T08:03:35;99601.63;;;14.43;100.00
7441;BME280;29616;51.950;8.572;2023-04-28T08:06:06;99590.81;;;14.56;100.00
7441;BME280;29616;51.950;8.572;2023-04-28T08:08:36;99590.47;;;14.95;100.00
7441;BME280;29616;51.950;8.572;2023-04-28T08:11:04;99581.13;;;15.11;100.00
7441;BME280;29616;51.950;8.572;2023-04-28T08:13:34;99595.66;;;15.05;100.00
7441;BME280;29616;51.950;8.572;2023-04-28T08:16:04;99591.34;;;15.17;100.00
7441;BME280;29616;51.950;8.572;2023-04-28T08:18:34;99572.47;;;15.50;100.00
7441;BME280;29616;51.950;8.572;2023-04-28T08:21:05;99578.69;;;15.80;100.00
7441;BME280;29616;51.950;8.572;2023-04-28T08:23:34;99572.13;;;15.81;100.00
7441;BME280;29616;51.950;8.572;2023-04-28T08:26:04;99566.19;;;16.39;100.00
7441;BME280;29616;51.950;8.572;2023-04-28T08:28:32;99571.94;;;16.10;100.00
7441;BME280;29616;51.950;8.572;2023-04-28T08:31:02;99564.97;;;16.48;100.00
7441;BME280;29616;51.950;8.572;2023-04-28T08:33:31;99555.97;;;16.33;100.00
7441;BME280;29616;51.950;8.572;2023-04-28T08:36:03;99580.81;;;16.39;100.00
7441;BME280;29616;51.950;8.572;2023-04-28T08:38:33;99568.75;;;16.41;100.00
7441;BME280;29616;51.950;8.572;2023-04-28T08:41:04;99572.81;;;16.45;100.00
7441;BME280;29616;51.950;8.572;2023-04-28T08:43:34;99580.16;;;16.65;100.00
7441;BME280;29616;51.950;8.572;2023-04-28T08:46:08;99581.38;;;17.04;100.00
7441;BME280;29616;51.950;8.572;2023-04-28T08:48:40;99587.25;;;16.19;100.00
7441;BME280;29616;51.950;8.572;2023-04-28T08:51:16;99583.38;;;16.07;100.00
7441;BME280;29616;51.950;8.572;2023-04-28T08:53:49;99579.16;;;15.83;100.00
7441;BME280;29616;51.950;8.572;2023-04-28T08:56:25;99584.88;;;16.09;100.00
7441;BME280;29616;51.950;8.572;2023-04-28T08:58:55;99574.94;;;16.15;100.00
7441;BME280;29616;51.950;8.572;2023-04-28T09:01:24;99584.03;;;15.88;100.00
7441;BME280;29616;51.950;8.572;2023-04-28T09:03:54;99570.63;;;15.57;100.00
7441;BME280;29616;51.950;8.572;2023-04-28T09:06:31;99596.22;;;15.72;100.00
7441;BME280;29616;51.950;8.572;2023-04-28T09:09:18;99594.81;;;15.83;100.00
7441;BME280;29616;51.950;8.572;2023-04-28T09:11:56;99585.56;;;15.69;100.00
7441;BME280;29616;51.950;8.572;2023-04-28T09:14:28;99600.13;;;15.63;100.00
7441;BME280;29616;51.950;8.572;2023-04-28T09:16:56;99601.25;;;15.47;100.00
7441;BME280;29616;51.950;8.572;2023-04-28T09:19:32;99596.59;;;15.33;100.00
7441;BME280;29616;51.950;8.572;2023-04-28T09:22:05;99595.31;;;15.29;100.00
7441;BME280;29616;51.950;8.572;2023-04-28T09:24:52;99601.44;;;15.10;100.00
7441;BME280;29616;51.950;8.572;2023-04-28T09:27:26;99597.75;;;15.03;100.00
7441;BME280;29616;51.950;8.572;2023-04-28T09:29:57;99598.81;;;15.02;100.00
7441;BME280;29616;51.950;8.572;2023-04-28T09:32:26;99580.97;;;14.98;100.00
7441;BME280;29616;51.950;8.572;2023-04-28T09:34:56;99590.81;;;15.07;100.00
7441;BME280;29616;51.950;8.572;2023-04-28T09:37:28;99586.75;;;15.03;100.00
7441;BME280;29616;51.950;8.572;2023-04-28T09:40:05;99573.72;;;14.61;100.00
7441;BME280;29616;51.950;8.572;2023-04-28T09:42:37;99566.03;;;14.27;100.00
7441;BME280;29616;51.950;8.572;2023-04-28T09:45:10;99554.66;;;14.01;100.00
7441;BME280;29616;51.950;8.572;2023-04-28T09:47:42;99566.53;;;13.79;100.00
7441;BME280;29616;51.950;8.572;2023-04-28T09:50:12;99566.00;;;13.98;100.00
7441;BME280;29616;51.950;8.572;2023-04-28T09:52:45;99549.59;;;13.90;100.00
7441;BME280;29616;51.950;8.572;2023-04-28T09:55:16;99558.75;;;14.49;100.00
7441;BME280;29616;51.950;8.572;2023-04-28T09:57:47;99549.59;;;14.78;100.00
7441;BME280;29616;51.950;8.572;2023-04-28T10:00:16;99557.09;;;14.84;100.00
7441;BME280;29616;51.950;8.572;2023-04-28T10:02:48;99560.38;;;15.30;100.00
7441;BME280;29616;51.950;8.572;2023-04-28T10:05:21;99566.97;;;14.93;100.00
7441;BME280;29616;51.950;8.572;2023-04-28T10:07:53;99572.78;;;14.69;100.00
7441;BME280;29616;51.950;8.572;2023-04-28T10:10:23;99562.50;;;14.92;100.00
7441;BME280;29616;51.950;8.572;2023-04-28T10:12:56;99568.75;;;14.86;100.00
7441;BME280;29616;51.950;8.572;2023-04-28T10:15:28;99502.84;;;14.42;100.00
7441;BME280;29616;51.950;8.572;2023-04-28T10:17:58;99551.00;;;14.88;100.00
7441;BME280;29616;51.950;8.572;2023-04-28T10:20:29;99540.41;;;15.06;100.00
7441;BME280;29616;51.950;8.572;2023-04-28T10:23:21;99551.56;;;15.55;100.00
7441;BME280;29616;51.950;8.572;2023-04-28T10:25:56;99557.56;;;16.21;100.00
7441;BME280;29616;51.950;8.572;2023-04-28T10:28:26;99540.34;;;16.47;100.00
7441;BME280;29616;51.950;8.572;2023-04-28T10:31:09;99536.97;;;16.51;100.00
7441;BME280;29616;51.950;8.572;2023-04-28T10:33:39;99531.97;;;16.27;100.00
7441;BME280;29616;51.950;8.572;2023-04-28T10:36:09;99534.63;;;16.14;100.00
7441;BME280;29616;51.950;8.572;2023-04-28T10:39:09;99529.69;;;16.37;100.00
7441;BME280;29616;51.950;8.572;2023-04-28T10:41:38;99537.16;;;16.09;100.00
7441;BME280;29616;51.950;8.572;2023-04-28T10:44:40;99543.06;;;15.57;100.00
7441;BME280;29616;51.950;8.572;2023-04-28T10:47:10;99532.25;;;15.34;100.00
7441;BME280;29616;51.950;8.572;2023-04-28T10:50:08;99526.22;;;15.24;100.00
7441;BME280;29616;51.950;8.572;2023-04-28T10:52:49;99534.34;;;15.32;100.00
7441;BME280;29616;51.950;8.572;2023-04-28T10:55:29;99538.88;;;15.61;100.00
7441;BME280;29616;51.950;8.572;2023-04-28T10:58:30;99523.00;;;15.42;100.00
7441;BME280;29616;51.950;8.572;2023-04-28T11:01:24;99536.16;;;15.25;100.00
7441;BME280;29616;51.950;8.572;2023-04-28T11:03:56;99528.63;;;15.48;100.00
7441;BME280;29616;51.950;8.572;2023-04-28T11:06:32;99528.72;;;15.61;100.00
7441;BME280;29616;51.950;8.572;2023-04-28T11:09:50;99523.63;;;15.58;100.00
7441;BME280;29616;51.950;8.572;2023-04-28T11:12:20;99526.25;;;15.73;100.00
7441;BME280;29616;51.950;8.572;2023-04-28T11:14:50;99516.34;;;15.78;100.00
7441;BME280;29616;51.950;8.572;2023-04-28T11:17:38;99515.72;;;16.04;100.00
7441;BME280;29616;51.950;8.572;2023-04-28T11:20:12;99501.56;;;16.14;100.00
7441;BME280;29616;51.950;8.572;2023-04-28T11:22:44;99497.25;;;16.39;100.00
7441;BME280;29616;51.950;8.572;2023-04-28T11:25:13;99506.41;;;16.87;100.00
7441;BME280;29616;51.950;8.572;2023-04-28T11:27:45;99496.53;;;17.45;100.00
7441;BME280;29616;51.950;8.572;2023-04-28T11:30:20;99498.25;;;17.79;100.00
7441;BME280;29616;51.950;8.572;2023-04-28T11:32:51;99497.78;;;18.14;100.00
7441;BME280;29616;51.950;8.572;2023-04-28T11:35:19;99496.66;;;18.29;100.00
7441;BME280;29616;51.950;8.572;2023-04-28T11:38:01;99497.97;;;18.26;100.00
7441;BME280;29616;51.950;8.572;2023-04-28T11:40:33;99490.88;;;18.56;100.00
7441;BME280;29616;51.950;8.572;2023-04-28T11:43:03;99491.19;;;18.80;100.00
7441;BME280;29616;51.950;8.572;2023-04-28T11:45:33;99481.56;;;19.58;100.00
7441;BME280;29616;51.950;8.572;2023-04-28T11:48:20;99479.63;;;19.83;100.00
7441;BME280;29616;51.950;8.572;2023-04-28T11:50:50;99479.91;;;20.00;100.00
7441;BME280;29616;51.950;8.572;2023-04-28T11:53:20;99485.16;;;19.83;100.00
7441;BME280;29616;51.950;8.572;2023-04-28T11:56:04;99477.78;;;19.52;100.00
7441;BME280;29616;51.950;8.572;2023-04-28T11:58:37;99484.44;;;19.69;100.00
7441;BME280;29616;51.950;8.572;2023-04-28T12:01:08;99472.75;;;19.05;100.00
7441;BME280;29616;51.950;8.572;2023-04-28T12:03:43;99469.78;;;18.62;100.00
7441;BME280;29616;51.950;8.572;2023-04-28T12:06:16;99492.63;;;18.31;100.00
7441;BME280;29616;51.950;8.572;2023-04-28T12:08:45;99488.34;;;18.42;100.00
7441;BME280;29616;51.950;8.572;2023-04-28T12:11:15;99479.13;;;18.67;100.00
7441;BME280;29616;51.950;8.572;2023-04-28T12:14:03;99450.97;;;19.15;100.00
7441;BME280;29616;51.950;8.572;2023-04-28T12:16:38;99445.69;;;19.07;100.00
7441;BME280;29616;51.950;8.572;2023-04-28T12:19:11;99462.56;;;19.61;100.00
7441;BME280;29616;51.950;8.572;2023-04-28T12:21:43;99455.25;;;19.67;100.00
7441;BME280;29616;51.950;8.572;2023-04-28T12:24:18;99454.06;;;19.81;100.00
7441;BME280;29616;51.950;8.572;2023-04-28T12:26:48;99458.50;;;19.32;100.00
7441;BME280;29616;51.950;8.572;2023-04-28T12:29:50;99451.22;;;19.38;100.00
7441;BME280;29616;51.950;8.572;2023-04-28T12:32:37;99445.78;;;19.99;100.00
7441;BME280;29616;51.950;8.572;2023-04-28T12:35:08;99445.06;;;20.46;100.00
7441;BME280;29616;51.950;8.572;2023-04-28T12:37:38;99456.78;;;20.30;100.00
7441;BME280;29616;51.950;8.572;2023-04-28T12:40:08;99439.16;;;21.02;100.00
7441;BME280;29616;51.950;8.572;2023-04-28T12:42:38;99459.56;;;20.48;100.00
7441;BME280;29616;51.950;8.572;2023-04-28T12:45:09;99459.31;;;19.89;100.00
7441;BME280;29616;51.950;8.572;2023-04-28T12:47:40;99464.25;;;19.62;100.00
7441;BME280;29616;51.950;8.572;2023-04-28T12:50:09;99449.91;;;19.47;100.00
7441;BME280;29616;51.950;8.572;2023-04-28T12:52:40;99447.81;;;19.43;100.00
7441;BME280;29616;51.950;8.572;2023-04-28T12:55:09;99453.66;;;20.20;100.00
7441;BME280;29616;51.950;8.572;2023-04-28T12:57:38;99454.53;;;20.39;100.00
7441;BME280;29616;51.950;8.572;2023-04-28T13:00:11;99454.56;;;20.87;100.00
7441;BME280;29616;51.950;8.572;2023-04-28T13:02:42;99457.22;;;20.64;100.00
7441;BME280;29616;51.950;8.572;2023-04-28T13:05:12;99443.94;;;20.66;100.00
7441;BME280;29616;51.950;8.572;2023-04-28T13:07:42;99459.41;;;20.62;100.00
7441;BME280;29616;51.950;8.572;2023-04-28T13:10:11;99449.50;;;20.66;100.00
7441;BME280;29616;51.950;8.572;2023-04-28T13:12:41;99461.19;;;20.13;100.00
7441;BME280;29616;51.950;8.572;2023-04-28T13:15:12;99461.78;;;19.97;100.00
7441;BME280;29616;51.950;8.572;2023-04-28T13:17:41;99448.63;;;19.92;100.00
7441;BME280;29616;51.950;8.572;2023-04-28T13:20:12;99447.41;;;19.64;100.00
7441;BME280;29616;51.950;8.572;2023-04-28T13:22:40;99448.25;;;19.33;100.00
7441;BME280;29616;51.950;8.572;2023-04-28T13:25:08;99450.69;;;19.23;100.00